NFTL/HPA METAR and TAF weather

Enter ICAO airport designator
Station Type Date Time Source
NFTL METAR 2021/09/23 17:00 UTC NOAA

NFTL 231700Z 08008KT 9999 FEW016 24/19 Q1014


Station Type Date Time Source
NFTL Decoded METAR 2021/09/23 17:00 UTC NOAA

Haapai, Tonga (NFTL) 19-48S 174-21W 3M
Sep 23, 2021 - 01:00 PM EDT / 2021.09.23 1700 UTC
Wind: from the E (080 degrees) at 9 MPH (8 KT):0
Visibility: greater than 7 mile(s):0
Sky conditions: mostly clear
Temperature: 75 F (24 C)
Dew Point: 66 F (19 C)
Relative Humidity: 73%
Pressure (altimeter): 29.94 in. Hg (1014 hPa)
ob: NFTL 231700Z 08008KT 9999 FEW016 24/19 Q1014
cycle: 17

Station Type Date Time Source
NFTL TAF 2018/02/21 17:19 UTC NOAA

TAF NFTL 211605Z 2117/2208 12010KT 9999 SCT018

Example: see airport list